sensor_id;sensor_type;location;lat;lon;timestamp;pressure;altitude;pressure_sealevel;temperature;humidity
61384;BME280;63511;49.346;8.798;2023-07-13T00:01:39;100112.81;;;21.32;53.30
61384;BME280;63511;49.346;8.798;2023-07-13T00:04:06;100117.78;;;21.25;53.76
61384;BME280;63511;49.346;8.798;2023-07-13T00:06:33;100121.56;;;21.01;55.71
61384;BME280;63511;49.346;8.798;2023-07-13T00:09:00;100131.19;;;21.11;55.13
61384;BME280;63511;49.346;8.798;2023-07-13T00:11:27;100133.66;;;21.07;56.65
61384;BME280;63511;49.346;8.798;2023-07-13T00:13:56;100137.25;;;20.76;58.56
61384;BME280;63511;49.346;8.798;2023-07-13T00:16:23;100137.25;;;20.76;58.40
61384;BME280;63511;49.346;8.798;2023-07-13T00:18:49;100133.63;;;20.68;59.36
61384;BME280;63511;49.346;8.798;2023-07-13T00:21:18;100131.72;;;20.59;60.91
61384;BME280;63511;49.346;8.798;2023-07-13T00:23:44;100133.72;;;20.36;60.29
61384;BME280;63511;49.346;8.798;2023-07-13T00:26:11;100126.41;;;20.52;58.69
61384;BME280;63511;49.346;8.798;2023-07-13T00:28:38;100124.41;;;20.40;60.64
61384;BME280;63511;49.346;8.798;2023-07-13T00:31:09;100123.59;;;20.08;64.37
61384;BME280;63511;49.346;8.798;2023-07-13T00:33:38;100125.59;;;20.21;62.44
61384;BME280;63511;49.346;8.798;2023-07-13T00:36:07;100115.78;;;20.04;63.83
61384;BME280;63511;49.346;8.798;2023-07-13T00:38:36;100112.22;;;19.99;64.52
61384;BME280;63511;49.346;8.798;2023-07-13T00:41:04;100108.00;;;20.01;63.68
61384;BME280;63511;49.346;8.798;2023-07-13T00:43:31;100100.59;;;19.78;64.54
61384;BME280;63511;49.346;8.798;2023-07-13T00:46:22;100113.75;;;19.92;63.43
61384;BME280;63511;49.346;8.798;2023-07-13T00:48:50;100119.81;;;19.94;62.69
61384;BME280;63511;49.346;8.798;2023-07-13T00:51:22;100125.00;;;19.66;65.49
61384;BME280;63511;49.346;8.798;2023-07-13T00:53:51;100117.78;;;19.51;66.90
61384;BME280;63511;49.346;8.798;2023-07-13T00:56:19;100121.69;;;19.40;67.09
61384;BME280;63511;49.346;8.798;2023-07-13T00:58:47;100118.94;;;19.34;67.79
61384;BME280;63511;49.346;8.798;2023-07-13T01:01:17;100120.94;;;19.42;65.09
61384;BME280;63511;49.346;8.798;2023-07-13T01:03:47;100124.94;;;19.34;66.86
61384;BME280;63511;49.346;8.798;2023-07-13T01:06:14;100130.88;;;19.33;66.20
61384;BME280;63511;49.346;8.798;2023-07-13T01:08:42;100135.13;;;19.33;65.98
61384;BME280;63511;49.346;8.798;2023-07-13T01:11:09;100134.81;;;19.21;66.99
61384;BME280;63511;49.346;8.798;2023-07-13T01:13:36;100129.00;;;18.98;68.34
61384;BME280;63511;49.346;8.798;2023-07-13T01:16:11;100130.72;;;18.99;67.09
61384;BME280;63511;49.346;8.798;2023-07-13T01:18:50;100115.91;;;18.89;67.18
61384;BME280;63511;49.346;8.798;2023-07-13T01:21:18;100127.22;;;18.95;67.03
61384;BME280;63511;49.346;8.798;2023-07-13T01:23:45;100129.84;;;18.70;68.86
61384;BME280;63511;49.346;8.798;2023-07-13T01:26:11;100147.72;;;18.68;68.81
61384;BME280;63511;49.346;8.798;2023-07-13T01:28:38;100141.78;;;18.44;70.42
61384;BME280;63511;49.346;8.798;2023-07-13T01:31:05;100140.41;;;18.54;68.90
61384;BME280;63511;49.346;8.798;2023-07-13T01:33:33;100126.25;;;18.38;69.09
61384;BME280;63511;49.346;8.798;2023-07-13T01:36:00;100132.88;;;18.33;69.30
61384;BME280;63511;49.346;8.798;2023-07-13T01:38:28;100142.56;;;18.16;70.23
61384;BME280;63511;49.346;8.798;2023-07-13T01:40:55;100149.63;;;18.23;69.71
61384;BME280;63511;49.346;8.798;2023-07-13T01:43:22;100122.03;;;17.90;71.54
61384;BME280;63511;49.346;8.798;2023-07-13T01:45:49;100153.16;;;18.03;71.03
61384;BME280;63511;49.346;8.798;2023-07-13T01:48:21;100148.41;;;17.89;72.34
61384;BME280;63511;49.346;8.798;2023-07-13T01:50:48;100146.50;;;17.83;71.86
61384;BME280;63511;49.346;8.798;2023-07-13T01:53:15;100139.16;;;17.68;71.60
61384;BME280;63511;49.346;8.798;2023-07-13T01:55:43;100145.06;;;17.66;72.02
61384;BME280;63511;49.346;8.798;2023-07-13T01:58:12;100156.16;;;17.68;72.05
61384;BME280;63511;49.346;8.798;2023-07-13T02:00:38;100163.63;;;17.39;74.08
61384;BME280;63511;49.346;8.798;2023-07-13T02:03:05;100137.56;;;17.48;72.86
61384;BME280;63511;49.346;8.798;2023-07-13T02:05:32;100149.06;;;17.59;72.35
61384;BME280;63511;49.346;8.798;2023-07-13T02:07:59;100152.78;;;17.45;71.67
61384;BME280;63511;49.346;8.798;2023-07-13T02:10:25;100161.72;;;17.34;72.36
61384;BME280;63511;49.346;8.798;2023-07-13T02:12:55;100160.78;;;17.32;73.26
61384;BME280;63511;49.346;8.798;2023-07-13T02:15:21;100154.06;;;17.34;72.93
61384;BME280;63511;49.346;8.798;2023-07-13T02:17:48;100156.38;;;17.28;72.92
61384;BME280;63511;49.346;8.798;2023-07-13T02:20:14;100152.16;;;17.28;72.31
61384;BME280;63511;49.346;8.798;2023-07-13T02:22:41;100157.56;;;17.14;73.26
61384;BME280;63511;49.346;8.798;2023-07-13T02:25:08;100153.06;;;17.08;74.55
61384;BME280;63511;49.346;8.798;2023-07-13T02:27:38;100164.81;;;17.05;74.62
61384;BME280;63511;49.346;8.798;2023-07-13T02:30:10;100159.00;;;17.07;73.87
61384;BME280;63511;49.346;8.798;2023-07-13T02:32:37;100158.88;;;17.04;74.18
61384;BME280;63511;49.346;8.798;2023-07-13T02:35:05;100156.97;;;16.98;74.14
61384;BME280;63511;49.346;8.798;2023-07-13T02:37:32;100165.25;;;16.93;74.17
61384;BME280;63511;49.346;8.798;2023-07-13T02:39:59;100168.44;;;16.87;75.09
61384;BME280;63511;49.346;8.798;2023-07-13T02:42:25;100170.72;;;16.81;74.80
61384;BME280;63511;49.346;8.798;2023-07-13T02:44:52;100179.97;;;16.78;75.04
61384;BME280;63511;49.346;8.798;2023-07-13T02:47:20;100173.09;;;16.77;75.65
61384;BME280;63511;49.346;8.798;2023-07-13T02:49:47;100177.41;;;16.78;74.88
61384;BME280;63511;49.346;8.798;2023-07-13T02:52:14;100169.06;;;16.61;76.67
61384;BME280;63511;49.346;8.798;2023-07-13T02:54:40;100179.84;;;16.55;76.13
61384;BME280;63511;49.346;8.798;2023-07-13T02:57:07;100182.22;;;16.51;77.14
61384;BME280;63511;49.346;8.798;2023-07-13T02:59:34;100175.81;;;16.40;77.45
61384;BME280;63511;49.346;8.798;2023-07-13T03:02:01;100186.50;;;16.31;77.71
61384;BME280;63511;49.346;8.798;2023-07-13T03:04:29;100177.91;;;16.29;77.02
61384;BME280;63511;49.346;8.798;2023-07-13T03:06:55;100175.41;;;16.10;78.50
61384;BME280;63511;49.346;8.798;2023-07-13T03:09:24;100180.78;;;16.16;79.74
61384;BME280;63511;49.346;8.798;2023-07-13T03:11:52;100174.31;;;16.24;77.77
61384;BME280;63511;49.346;8.798;2023-07-13T03:14:19;100167.34;;;16.20;77.00
61384;BME280;63511;49.346;8.798;2023-07-13T03:16:46;100184.34;;;16.00;80.22
61384;BME280;63511;49.346;8.798;2023-07-13T03:19:12;100186.41;;;16.09;80.28
61384;BME280;63511;49.346;8.798;2023-07-13T03:21:40;100184.44;;;16.23;77.99
61384;BME280;63511;49.346;8.798;2023-07-13T03:24:07;100184.59;;;16.06;79.12
61384;BME280;63511;49.346;8.798;2023-07-13T03:26:34;100183.78;;;16.07;79.48
61384;BME280;63511;49.346;8.798;2023-07-13T03:29:01;100186.09;;;15.82;80.89
61384;BME280;63511;49.346;8.798;2023-07-13T03:31:33;100182.06;;;15.87;79.62
61384;BME280;63511;49.346;8.798;2023-07-13T03:34:00;100200.28;;;15.96;80.07
61384;BME280;63511;49.346;8.798;2023-07-13T03:36:31;100195.66;;;15.88;80.92
61384;BME280;63511;49.346;8.798;2023-07-13T03:39:02;100184.06;;;15.94;78.78
61384;BME280;63511;49.346;8.798;2023-07-13T03:41:29;100202.34;;;15.86;80.30
61384;BME280;63511;49.346;8.798;2023-07-13T03:43:57;100193.44;;;15.76;80.68
61384;BME280;63511;49.346;8.798;2023-07-13T03:46:25;100186.16;;;15.84;79.39
61384;BME280;63511;49.346;8.798;2023-07-13T03:48:51;100199.41;;;15.96;78.92
61384;BME280;63511;49.346;8.798;2023-07-13T03:51:22;100206.13;;;15.75;83.36
61384;BME280;63511;49.346;8.798;2023-07-13T03:53:49;100198.41;;;15.92;81.67
61384;BME280;63511;49.346;8.798;2023-07-13T03:56:18;100201.03;;;15.94;80.42
61384;BME280;63511;49.346;8.798;2023-07-13T03:58:46;100201.63;;;15.69;81.87
61384;BME280;63511;49.346;8.798;2023-07-13T04:01:14;100196.19;;;15.81;81.35
61384;BME280;63511;49.346;8.798;2023-07-13T04:03:42;100200.03;;;15.90;80.71
61384;BME280;63511;49.346;8.798;2023-07-13T04:06:14;100203.50;;;15.92;81.35
61384;BME280;63511;49.346;8.798;2023-07-13T04:08:47;100206.31;;;15.98;81.73
61384;BME280;63511;49.346;8.798;2023-07-13T04:11:14;100208.66;;;16.13;79.71
61384;BME280;63511;49.346;8.798;2023-07-13T04:13:42;100204.25;;;15.90;80.63
61384;BME280;63511;49.346;8.798;2023-07-13T04:16:09;100207.28;;;16.00;80.36
61384;BME280;63511;49.346;8.798;2023-07-13T04:18:36;100207.91;;;15.96;81.43
61384;BME280;63511;49.346;8.798;2023-07-13T04:21:03;100214.84;;;15.99;80.54
61384;BME280;63511;49.346;8.798;2023-07-13T04:23:29;100203.44;;;16.10;79.49
61384;BME280;63511;49.346;8.798;2023-07-13T04:25:56;100222.25;;;16.13;80.50
61384;BME280;63511;49.346;8.798;2023-07-13T04:28:24;100229.50;;;16.24;79.46
61384;BME280;63511;49.346;8.798;2023-07-13T04:30:53;100214.19;;;16.24;79.76
61384;BME280;63511;49.346;8.798;2023-07-13T04:33:20;100222.13;;;16.30;79.13
61384;BME280;63511;49.346;8.798;2023-07-13T04:35:48;100219.69;;;16.33;78.90
61384;BME280;63511;49.346;8.798;2023-07-13T04:38:15;100227.69;;;16.02;80.46
61384;BME280;63511;49.346;8.798;2023-07-13T04:40:42;100221.78;;;16.22;80.11
61384;BME280;63511;49.346;8.798;2023-07-13T04:43:09;100230.13;;;16.39;79.42
61384;BME280;63511;49.346;8.798;2023-07-13T04:45:35;100239.00;;;16.47;80.06
61384;BME280;63511;49.346;8.798;2023-07-13T04:48:04;100235.00;;;16.53;79.66
61384;BME280;63511;49.346;8.798;2023-07-13T04:50:31;100240.09;;;16.53;80.34
61384;BME280;63511;49.346;8.798;2023-07-13T04:52:58;100240.16;;;16.74;80.05
61384;BME280;63511;49.346;8.798;2023-07-13T04:55:24;100232.19;;;16.87;78.39
61384;BME280;63511;49.346;8.798;2023-07-13T04:57:56;100231.88;;;17.00;78.55
61384;BME280;63511;49.346;8.798;2023-07-13T05:00:24;100241.00;;;17.16;77.80
61384;BME280;63511;49.346;8.798;2023-07-13T05:02:50;100242.53;;;17.33;77.21
61384;BME280;63511;49.346;8.798;2023-07-13T05:05:18;100236.56;;;17.33;77.66
61384;BME280;63511;49.346;8.798;2023-07-13T05:07:45;100239.91;;;17.32;78.87
61384;BME280;63511;49.346;8.798;2023-07-13T05:10:12;100237.66;;;17.39;79.05
61384;BME280;63511;49.346;8.798;2023-07-13T05:12:39;100237.59;;;17.82;77.38
61384;BME280;63511;49.346;8.798;2023-07-13T05:15:06;100237.00;;;17.90;76.25
61384;BME280;63511;49.346;8.798;2023-07-13T05:17:33;100245.03;;;18.24;74.44
61384;BME280;63511;49.346;8.798;2023-07-13T05:20:00;100241.53;;;18.46;72.07
61384;BME280;63511;49.346;8.798;2023-07-13T05:22:28;100242.78;;;18.81;71.55
61384;BME280;63511;49.346;8.798;2023-07-13T05:24:55;100246.66;;;18.96;70.89
61384;BME280;63511;49.346;8.798;2023-07-13T05:27:21;100248.41;;;18.97;69.97
61384;BME280;63511;49.346;8.798;2023-07-13T05:29:49;100251.03;;;18.99;70.41
61384;BME280;63511;49.346;8.798;2023-07-13T05:32:16;100248.38;;;18.96;70.65
61384;BME280;63511;49.346;8.798;2023-07-13T05:34:43;100248.88;;;19.11;69.16
61384;BME280;63511;49.346;8.798;2023-07-13T05:37:10;100250.53;;;18.84;69.63
61384;BME280;63511;49.346;8.798;2023-07-13T05:39:38;100260.19;;;18.92;68.98
61384;BME280;63511;49.346;8.798;2023-07-13T05:42:05;100257.69;;;18.94;68.69
61384;BME280;63511;49.346;8.798;2023-07-13T05:44:32;100259.09;;;19.11;67.82
61384;BME280;63511;49.346;8.798;2023-07-13T05:46:58;100258.66;;;19.24;66.68
61384;BME280;63511;49.346;8.798;2023-07-13T05:49:28;100245.91;;;19.52;65.56
61384;BME280;63511;49.346;8.798;2023-07-13T05:51:55;100260.63;;;19.60;64.82
61384;BME280;63511;49.346;8.798;2023-07-13T05:54:22;100262.88;;;19.77;66.19
61384;BME280;63511;49.346;8.798;2023-07-13T05:56:50;100259.44;;;19.77;64.29
61384;BME280;63511;49.346;8.798;2023-07-13T05:59:17;100263.69;;;20.06;63.86
61384;BME280;63511;49.346;8.798;2023-07-13T06:01:44;100262.53;;;20.26;62.32
61384;BME280;63511;49.346;8.798;2023-07-13T06:04:11;100262.97;;;20.42;63.16
61384;BME280;63511;49.346;8.798;2023-07-13T06:06:37;100268.59;;;20.60;60.78
61384;BME280;63511;49.346;8.798;2023-07-13T06:09:04;100273.72;;;20.60;59.81
61384;BME280;63511;49.346;8.798;2023-07-13T06:11:31;100278.53;;;20.48;61.65
61384;BME280;63511;49.346;8.798;2023-07-13T06:13:59;100279.03;;;20.66;59.48
61384;BME280;63511;49.346;8.798;2023-07-13T06:16:25;100282.50;;;21.02;59.22
61384;BME280;63511;49.346;8.798;2023-07-13T06:18:53;100287.78;;;21.08;57.24
61384;BME280;63511;49.346;8.798;2023-07-13T06:21:21;100286.00;;;21.06;55.73
61384;BME280;63511;49.346;8.798;2023-07-13T06:23:50;100296.97;;;21.35;55.97
61384;BME280;63511;49.346;8.798;2023-07-13T06:26:18;100288.53;;;21.39;55.06
61384;BME280;63511;49.346;8.798;2023-07-13T06:28:45;100296.47;;;21.13;55.30
61384;BME280;63511;49.346;8.798;2023-07-13T06:31:14;100301.59;;;20.79;59.00
61384;BME280;63511;49.346;8.798;2023-07-13T06:33:41;100302.88;;;20.96;56.99
61384;BME280;63511;49.346;8.798;2023-07-13T06:36:08;100305.69;;;21.05;56.96
61384;BME280;63511;49.346;8.798;2023-07-13T06:38:35;100301.16;;;21.30;57.59
61384;BME280;63511;49.346;8.798;2023-07-13T06:41:02;100315.13;;;21.41;57.89
61384;BME280;63511;49.346;8.798;2023-07-13T06:43:28;100308.84;;;21.30;53.88
61384;BME280;63511;49.346;8.798;2023-07-13T06:45:57;100315.53;;;21.22;55.71
61384;BME280;63511;49.346;8.798;2023-07-13T06:48:25;100311.41;;;21.30;55.32
61384;BME280;63511;49.346;8.798;2023-07-13T06:50:52;100312.16;;;21.60;54.48
61384;BME280;63511;49.346;8.798;2023-07-13T06:53:19;100317.91;;;21.50;56.45
61384;BME280;63511;49.346;8.798;2023-07-13T06:55:46;100312.13;;;21.23;53.17
61384;BME280;63511;49.346;8.798;2023-07-13T06:58:14;100317.69;;;21.41;55.08
61384;BME280;63511;49.346;8.798;2023-07-13T07:00:42;100310.84;;;21.41;53.82
61384;BME280;63511;49.346;8.798;2023-07-13T07:03:11;100314.88;;;21.68;53.97
61384;BME280;63511;49.346;8.798;2023-07-13T07:05:40;100313.63;;;21.89;54.80
61384;BME280;63511;49.346;8.798;2023-07-13T07:08:07;100323.50;;;22.07;57.22
61384;BME280;63511;49.346;8.798;2023-07-13T07:10:34;100314.31;;;22.20;56.61
61384;BME280;63511;49.346;8.798;2023-07-13T07:13:01;100323.69;;;22.18;55.02
61384;BME280;63511;49.346;8.798;2023-07-13T07:15:29;100323.22;;;21.95;54.96
61384;BME280;63511;49.346;8.798;2023-07-13T07:17:55;100315.56;;;21.98;55.55
61384;BME280;63511;49.346;8.798;2023-07-13T07:20:22;100317.47;;;22.07;53.35
61384;BME280;63511;49.346;8.798;2023-07-13T07:22:50;100315.88;;;22.12;52.19
61384;BME280;63511;49.346;8.798;2023-07-13T07:25:22;100319.09;;;22.01;51.60
61384;BME280;63511;49.346;8.798;2023-07-13T07:27:48;100311.47;;;22.08;51.38
61384;BME280;63511;49.346;8.798;2023-07-13T07:30:15;100320.44;;;22.26;52.69
61384;BME280;63511;49.346;8.798;2023-07-13T07:32:42;100314.56;;;22.33;53.76
61384;BME280;63511;49.346;8.798;2023-07-13T07:35:09;100310.41;;;22.40;53.39
61384;BME280;63511;49.346;8.798;2023-07-13T07:37:36;100313.06;;;22.43;52.58
61384;BME280;63511;49.346;8.798;2023-07-13T07:40:05;100315.72;;;22.49;51.23
61384;BME280;63511;49.346;8.798;2023-07-13T07:42:33;100315.69;;;22.46;48.30
61384;BME280;63511;49.346;8.798;2023-07-13T07:44:59;100319.25;;;22.53;46.88
61384;BME280;63511;49.346;8.798;2023-07-13T07:47:27;100321.06;;;22.58;48.41
61384;BME280;63511;49.346;8.798;2023-07-13T07:49:53;100325.47;;;22.64;48.81
61384;BME280;63511;49.346;8.798;2023-07-13T07:52:20;100329.22;;;22.79;48.40
61384;BME280;63511;49.346;8.798;2023-07-13T07:54:47;100323.03;;;22.71;48.25
61384;BME280;63511;49.346;8.798;2023-07-13T07:57:15;100318.81;;;22.75;45.17
61384;BME280;63511;49.346;8.798;2023-07-13T07:59:41;100326.88;;;22.93;46.42
61384;BME280;63511;49.346;8.798;2023-07-13T08:02:09;100325.28;;;23.01;45.42
61384;BME280;63511;49.346;8.798;2023-07-13T08:04:36;100332.47;;;23.20;44.58
61384;BME280;63511;49.346;8.798;2023-07-13T08:07:04;100324.69;;;23.16;43.69
61384;BME280;63511;49.346;8.798;2023-07-13T08:09:31;100325.00;;;23.36;45.73
61384;BME280;63511;49.346;8.798;2023-07-13T08:11:58;100332.22;;;23.58;45.25
61384;BME280;63511;49.346;8.798;2023-07-13T08:14:26;100323.28;;;23.36;46.46
61384;BME280;63511;49.346;8.798;2023-07-13T08:16:53;100324.94;;;23.31;47.50
61384;BME280;63511;49.346;8.798;2023-07-13T08:19:23;100326.09;;;23.50;46.49
61384;BME280;63511;49.346;8.798;2023-07-13T08:21:52;100328.44;;;23.36;46.35
61384;BME280;63511;49.346;8.798;2023-07-13T08:24:21;100321.28;;;23.18;44.73
61384;BME280;63511;49.346;8.798;2023-07-13T08:26:49;100333.28;;;23.18;44.20
61384;BME280;63511;49.346;8.798;2023-07-13T08:29:17;100328.41;;;23.35;45.69
61384;BME280;63511;49.346;8.798;2023-07-13T08:31:46;100336.16;;;23.36;42.99
61384;BME280;63511;49.346;8.798;2023-07-13T08:34:12;100332.56;;;23.26;44.30
61384;BME280;63511;49.346;8.798;2023-07-13T08:36:55;100335.63;;;23.55;45.88
61384;BME280;63511;49.346;8.798;2023-07-13T08:39:22;100333.00;;;23.52;44.45
61384;BME280;63511;49.346;8.798;2023-07-13T08:41:52;100327.88;;;23.54;44.22
61384;BME280;63511;49.346;8.798;2023-07-13T08:44:27;100337.59;;;23.71;43.19
61384;BME280;63511;49.346;8.798;2023-07-13T08:47:02;100332.53;;;23.81;42.52
61384;BME280;63511;49.346;8.798;2023-07-13T08:49:30;100338.34;;;23.64;43.41
61384;BME280;63511;49.346;8.798;2023-07-13T08:52:02;100342.59;;;23.61;43.82
61384;BME280;63511;49.346;8.798;2023-07-13T08:54:34;100340.47;;;23.93;43.83
61384;BME280;63511;49.346;8.798;2023-07-13T08:57:11;100334.22;;;23.77;44.61
61384;BME280;63511;49.346;8.798;2023-07-13T08:59:39;100328.66;;;24.11;46.14
61384;BME280;63511;49.346;8.798;2023-07-13T09:02:25;100328.81;;;24.22;46.04
61384;BME280;63511;49.346;8.798;2023-07-13T09:04:58;100332.28;;;24.24;43.13
61384;BME280;63511;49.346;8.798;2023-07-13T09:07:34;100327.28;;;24.41;43.16
61384;BME280;63511;49.346;8.798;2023-07-13T09:10:13;100327.41;;;24.48;41.87
61384;BME280;63511;49.346;8.798;2023-07-13T09:12:48;100320.31;;;24.29;44.06
61384;BME280;63511;49.346;8.798;2023-07-13T09:15:24;100323.06;;;24.47;41.98
61384;BME280;63511;49.346;8.798;2023-07-13T09:17:55;100320.47;;;24.44;42.90
61384;BME280;63511;49.346;8.798;2023-07-13T09:20:27;100321.31;;;24.43;43.14
61384;BME280;63511;49.346;8.798;2023-07-13T09:22:56;100320.38;;;24.37;43.08
61384;BME280;63511;49.346;8.798;2023-07-13T09:25:29;100324.84;;;24.50;43.62
61384;BME280;63511;49.346;8.798;2023-07-13T09:27:59;100325.63;;;24.43;43.57
61384;BME280;63511;49.346;8.798;2023-07-13T09:30:34;100316.63;;;24.12;42.08
61384;BME280;63511;49.346;8.798;2023-07-13T09:33:05;100330.28;;;24.05;42.04
61384;BME280;63511;49.346;8.798;2023-07-13T09:35:31;100328.34;;;24.55;43.06
61384;BME280;63511;49.346;8.798;2023-07-13T09:38:02;100327.63;;;24.73;43.40
61384;BME280;63511;49.346;8.798;2023-07-13T09:40:38;100327.00;;;24.92;43.67
61384;BME280;63511;49.346;8.798;2023-07-13T09:43:08;100317.31;;;24.73;42.87
61384;BME280;63511;49.346;8.798;2023-07-13T09:45:37;100310.34;;;24.64;41.11
61384;BME280;63511;49.346;8.798;2023-07-13T09:48:10;100319.84;;;24.68;42.78
61384;BME280;63511;49.346;8.798;2023-07-13T09:50:42;100331.13;;;24.76;41.41
61384;BME280;63511;49.346;8.798;2023-07-13T09:53:13;100336.59;;;25.05;43.40
61384;BME280;63511;49.346;8.798;2023-07-13T09:55:42;100323.59;;;24.96;41.07
61384;BME280;63511;49.346;8.798;2023-07-13T09:58:12;100323.91;;;24.43;42.23
61384;BME280;63511;49.346;8.798;2023-07-13T10:00:40;100325.91;;;24.72;42.89
61384;BME280;63511;49.346;8.798;2023-07-13T10:03:17;100324.75;;;25.31;42.09
61384;BME280;63511;49.346;8.798;2023-07-13T10:05:47;100320.38;;;25.24;39.84
61384;BME280;63511;49.346;8.798;2023-07-13T10:08:21;100312.91;;;25.62;40.31
61384;BME280;63511;49.346;8.798;2023-07-13T10:10:52;100314.88;;;26.13;41.20
61384;BME280;63511;49.346;8.798;2023-07-13T10:13:32;100324.34;;;26.08;41.70
61384;BME280;63511;49.346;8.798;2023-07-13T10:16:02;100322.53;;;25.92;41.61
61384;BME280;63511;49.346;8.798;2023-07-13T10:18:38;100318.97;;;25.64;40.25
61384;BME280;63511;49.346;8.798;2023-07-13T10:21:15;100320.72;;;25.76;40.02
61384;BME280;63511;49.346;8.798;2023-07-13T10:23:45;100324.78;;;25.37;41.72
61384;BME280;63511;49.346;8.798;2023-07-13T10:26:15;100316.41;;;25.72;42.24
61384;BME280;63511;49.346;8.798;2023-07-13T10:28:46;100325.69;;;25.46;42.07
61384;BME280;63511;49.346;8.798;2023-07-13T10:31:15;100317.84;;;25.30;41.90
61384;BME280;63511;49.346;8.798;2023-07-13T10:33:44;100317.16;;;25.56;42.24
61384;BME280;63511;49.346;8.798;2023-07-13T10:36:20;100312.81;;;25.55;40.86
61384;BME280;63511;49.346;8.798;2023-07-13T10:38:51;100317.09;;;25.50;41.43
61384;BME280;63511;49.346;8.798;2023-07-13T10:41:20;100318.09;;;25.64;40.72
61384;BME280;63511;49.346;8.798;2023-07-13T10:43:51;100311.06;;;25.51;42.37
61384;BME280;63511;49.346;8.798;2023-07-13T10:46:19;100325.00;;;25.68;39.88
61384;BME280;63511;49.346;8.798;2023-07-13T10:48:51;100306.34;;;26.34;40.26
61384;BME280;63511;49.346;8.798;2023-07-13T10:51:24;100307.25;;;26.48;39.35
61384;BME280;63511;49.346;8.798;2023-07-13T10:54:18;100309.00;;;26.71;38.71
61384;BME280;63511;49.346;8.798;2023-07-13T10:56:50;100304.69;;;26.74;38.11
61384;BME280;63511;49.346;8.798;2023-07-13T10:59:23;100306.44;;;26.80;40.32
61384;BME280;63511;49.346;8.798;2023-07-13T11:01:57;100290.88;;;26.64;39.36
61384;BME280;63511;49.346;8.798;2023-07-13T11:04:29;100285.63;;;26.25;38.48
61384;BME280;63511;49.346;8.798;2023-07-13T11:07:10;100301.22;;;26.54;38.81
61384;BME280;63511;49.346;8.798;2023-07-13T11:09:39;100288.22;;;26.27;37.96
61384;BME280;63511;49.346;8.798;2023-07-13T11:12:09;100292.47;;;26.21;39.35
61384;BME280;63511;49.346;8.798;2023-07-13T11:15:03;100296.03;;;26.74;40.09
61384;BME280;63511;49.346;8.798;2023-07-13T11:17:45;100287.47;;;27.00;37.30
61384;BME280;63511;49.346;8.798;2023-07-13T11:20:36;100277.03;;;26.79;36.18
61384;BME280;63511;49.346;8.798;2023-07-13T11:23:19;100279.63;;;26.59;36.69
61384;BME280;63511;49.346;8.798;2023-07-13T11:25:47;100276.22;;;27.06;36.00
61384;BME280;63511;49.346;8.798;2023-07-13T11:28:18;100279.66;;;26.67;37.38
61384;BME280;63511;49.346;8.798;2023-07-13T11:30:49;100272.72;;;26.58;36.60
61384;BME280;63511;49.346;8.798;2023-07-13T11:33:18;100278.78;;;26.73;38.09
61384;BME280;63511;49.346;8.798;2023-07-13T11:35:51;100272.66;;;26.33;37.65
61384;BME280;63511;49.346;8.798;2023-07-13T11:38:22;100273.44;;;26.12;37.45
61384;BME280;63511;49.346;8.798;2023-07-13T11:40:52;100274.28;;;26.02;37.01
61384;BME280;63511;49.346;8.798;2023-07-13T11:43:19;100284.56;;;25.84;37.40
61384;BME280;63511;49.346;8.798;2023-07-13T11:45:48;100285.56;;;26.20;37.56
61384;BME280;63511;49.346;8.798;2023-07-13T11:48:24;100276.03;;;26.06;37.21
61384;BME280;63511;49.346;8.798;2023-07-13T11:50:58;100279.56;;;26.23;37.04
61384;BME280;63511;49.346;8.798;2023-07-13T11:53:29;100279.50;;;26.14;36.96
61384;BME280;63511;49.346;8.798;2023-07-13T11:55:58;100290.66;;;25.95;37.35
61384;BME280;63511;49.346;8.798;2023-07-13T11:58:26;100286.34;;;25.94;37.18
61384;BME280;63511;49.346;8.798;2023-07-13T12:00:55;100291.41;;;25.69;36.99
61384;BME280;63511;49.346;8.798;2023-07-13T12:03:26;100291.28;;;25.54;37.47
61384;BME280;63511;49.346;8.798;2023-07-13T12:06:01;100291.41;;;25.75;36.71
61384;BME280;63511;49.346;8.798;2023-07-13T12:08:29;100281.22;;;26.13;38.72
61384;BME280;63511;49.346;8.798;2023-07-13T12:11:00;100284.75;;;26.28;36.45
61384;BME280;63511;49.346;8.798;2023-07-13T12:13:35;100281.41;;;26.83;37.49
61384;BME280;63511;49.346;8.798;2023-07-13T12:16:11;100272.78;;;26.89;35.34
61384;BME280;63511;49.346;8.798;2023-07-13T12:18:38;100271.06;;;27.03;36.44
61384;BME280;63511;49.346;8.798;2023-07-13T12:21:13;100266.69;;;27.16;36.73
61384;BME280;63511;49.346;8.798;2023-07-13T12:23:43;100271.88;;;27.40;35.16
61384;BME280;63511;49.346;8.798;2023-07-13T12:26:11;100267.56;;;27.10;35.94
61384;BME280;63511;49.346;8.798;2023-07-13T12:28:44;100283.09;;;27.36;34.65
61384;BME280;63511;49.346;8.798;2023-07-13T12:31:24;100264.94;;;27.39;33.36
61384;BME280;63511;49.346;8.798;2023-07-13T12:33:56;100281.38;;;27.38;35.30
61384;BME280;63511;49.346;8.798;2023-07-13T12:36:25;100274.44;;;27.44;34.65
61384;BME280;63511;49.346;8.798;2023-07-13T12:38:52;100279.66;;;27.35;33.54
61384;BME280;63511;49.346;8.798;2023-07-13T12:41:19;100286.59;;;27.29;32.83
61384;BME280;63511;49.346;8.798;2023-07-13T12:43:48;100283.97;;;26.65;34.34
61384;BME280;63511;49.346;8.798;2023-07-13T12:46:18;100292.59;;;26.70;34.57
61384;BME280;63511;49.346;8.798;2023-07-13T12:48:48;100278.78;;;26.68;33.30
61384;BME280;63511;49.346;8.798;2023-07-13T12:51:15;100275.28;;;26.39;33.70
61384;BME280;63511;49.346;8.798;2023-07-13T12:53:49;100282.25;;;26.67;33.13
61384;BME280;63511;49.346;8.798;2023-07-13T12:56:21;100284.00;;;27.00;33.21
61384;BME280;63511;49.346;8.798;2023-07-13T12:58:49;100280.47;;;27.48;35.04
61384;BME280;63511;49.346;8.798;2023-07-13T13:01:21;100284.75;;;27.73;34.76